No 31 Takemaru — JG5731 — position and weather

sailwx.info

Track history (hours):
 
Tides and Currents Weather Stations Pressure Air Temp Water Temp Dewpoint Dewpoint Depression Visibility Wind Speed Wind Dir Waves Ship Positions

No 31 Takemaru

Last reported at 2017-Feb-22 17:33 UTC. Time now 2017-Feb-22 17:41 UTC.
Position N 34°39' E 135°28'.

Length 31 m; draft 2.5 m.

Type: Tug. MMSI: 431000439.

Date/timePositionNaut miles runAvg speedWind from/ knotsBaromVisibWave heightAir tempDewpointWater temp
2017-Feb-22 17:33N 34°39' E 135°28'0 0.0
2017-Feb-22 16:33N 34°39' E 135°28'0 0.0
2017-Feb-22 15:33N 34°39' E 135°28'0 0.0
2017-Feb-22 14:33N 34°39' E 135°28'0 0.0
2017-Feb-22 13:33N 34°39' E 135°28'0 0.0
2017-Feb-22 12:30N 34°39' E 135°28'0 0.0
2017-Feb-22 11:33N 34°39' E 135°28'0 0.0
2017-Feb-22 10:33N 34°39' E 135°28'0 0.0
2017-Feb-22 09:30N 34°39' E 135°28'0 0.0
2017-Feb-22 08:28N 34°39' E 135°28'0 0.0
2017-Feb-22 07:25N 34°39' E 135°28'0 0.0
2017-Feb-22 06:25N 34°39' E 135°28'0 0.0
2017-Feb-22 05:33N 34°39' E 135°28'0 0.0
2017-Feb-22 04:32N 34°39' E 135°28'0 0.0
2017-Feb-21 23:27N 34°39' E 135°28'0 0.0
2017-Feb-21 22:26N 34°39' E 135°28'0 0.0
2017-Feb-21 21:27N 34°39' E 135°28'0 0.0
2017-Feb-21 20:31N 34°39' E 135°28'0 0.0
2017-Feb-21 19:30N 34°39' E 135°28'0 0.0
2017-Feb-21 18:33N 34°39' E 135°28'0 0.0
2017-Feb-21 17:32N 34°39' E 135°28'0 0.0
2017-Feb-21 16:23N 34°39' E 135°28'0 0.0
2017-Feb-21 15:33N 34°39' E 135°28'0 0.0
2017-Feb-21 14:33N 34°39' E 135°28'0 0.0
2017-Feb-21 13:24N 34°39' E 135°28'0 0.0
2017-Feb-21 12:33N 34°39' E 135°28'0 0.0
2017-Feb-21 11:33N 34°39' E 135°28'0 0.0
2017-Feb-21 10:32N 34°39' E 135°28'0 0.0
2017-Feb-21 09:33N 34°39' E 135°28'0 0.0
2017-Feb-21 08:33N 34°39' E 135°28'0 0.0
2017-Feb-21 07:31N 34°39' E 135°28'1 0.6
2017-Feb-21 06:32N 34°39' E 135°27'1 1.2
2017-Feb-21 05:33N 34°40' E 135°27'1 0.5
2017-Feb-21 02:31N 34°39' E 135°28'1 1.4
2017-Feb-21 01:32N 34°39' E 135°26'1 1.2
2017-Feb-21 00:22N 34°39' E 135°28'0 0.0
2017-Feb-20 23:21N 34°39' E 135°28'3 3.7
2017-Feb-20 22:33N 34°38' E 135°25'1 0.6
2017-Feb-20 21:33N 34°38' E 135°24'3 2.8
2017-Feb-20 20:33N 34°39' E 135°27'1 0.7
2017-Feb-20 19:33N 34°39' E 135°28'0 0.0
2017-Feb-20 18:33N 34°39' E 135°28'0 0.0
2017-Feb-20 17:33N 34°39' E 135°28'0 0.0
2017-Feb-20 16:32N 34°39' E 135°28'0 0.0
2017-Feb-20 15:32N 34°39' E 135°28'0 0.0
2017-Feb-20 12:27N 34°39' E 135°28'0 0.0
2017-Feb-20 10:33N 34°39' E 135°28'2 1.9
2017-Feb-20 09:33N 34°39' E 135°26'0 0.0
2017-Feb-20 08:33N 34°39' E 135°26'1 1.0
2017-Feb-20 07:33N 34°39' E 135°24'3 2.6
2017-Feb-20 06:27N 34°39' E 135°28'0 0.0
2017-Feb-20 05:33N 34°39' E 135°28'0 0.0
2017-Feb-20 04:28N 34°39' E 135°28'0 0.0
2017-Feb-20 03:33N 34°39' E 135°28'0 0.0
2017-Feb-20 02:32N 34°39' E 135°28'0 0.0
2017-Feb-20 01:31N 34°39' E 135°28'0 0.0
2017-Feb-20 00:10N 34°39' E 135°28'1 2.4
2017-Feb-19 23:33N 34°40' E 135°27'2 2.0
2017-Feb-19 22:33N 34°39' E 135°24'0 0.1
2017-Feb-19 21:33N 34°39' E 135°24'0 0.4
2017-Feb-19 20:33N 34°39' E 135°24'3 3.2
2017-Feb-19 19:33N 34°39' E 135°28'0 0.0
2017-Feb-19 13:13N 34°39' E 135°28'0 0.0
2017-Feb-19 09:24N 34°39' E 135°28'0 0.0
2017-Feb-19 08:31N 34°39' E 135°28'0 0.0
2017-Feb-19 07:30N 34°39' E 135°28'0 0.0
2017-Feb-19 06:31N 34°39' E 135°28'0 0.0
2017-Feb-19 05:33N 34°39' E 135°28'0 0.0
2017-Feb-19 04:31N 34°39' E 135°28'0 0.0
2017-Feb-19 03:31N 34°39' E 135°28'0 0.0
2017-Feb-19 02:27N 34°39' E 135°28'0 0.0
2017-Feb-19 01:32N 34°39' E 135°28'0 0.0
2017-Feb-19 00:29N 34°39' E 135°28'0 0.0
2017-Feb-18 23:25N 34°39' E 135°28'0 0.0
2017-Feb-18 16:16N 34°39' E 135°28'0 0.0
2017-Feb-18 15:31N 34°39' E 135°28'0 0.0
2017-Feb-18 14:28N 34°39' E 135°28'0 0.0
2017-Feb-18 12:24N 34°39' E 135°28'0 0.0
2017-Feb-18 09:31N 34°39' E 135°28'0 0.0
2017-Feb-18 07:24N 34°39' E 135°28'0 0.0
2017-Feb-18 00:28N 34°39' E 135°28'2 2.3
2017-Feb-17 23:33N 34°39' E 135°25'1 1.1
2017-Feb-17 22:33N 34°39' E 135°27'1 1.0
2017-Feb-17 21:33N 34°39' E 135°28'0 0.0
2017-Feb-17 20:24N 34°39' E 135°28'0 0.0
2017-Feb-17 19:19N 34°39' E 135°28'0 0.0
2017-Feb-17 18:17N 34°39' E 135°28'0 0.0
2017-Feb-17 17:22N 34°39' E 135°28'0 0.0
2017-Feb-17 14:33N 34°39' E 135°28'0 0.0
2017-Feb-17 10:19N 34°39' E 135°28'0 0.0
2017-Feb-17 09:29N 34°39' E 135°28'2 1.9
2017-Feb-17 08:33N 34°39' E 135°26'2 0.2
2017-Feb-16 21:04N 34°39' E 135°28'0 0.0
2017-Feb-16 09:07N 34°39' E 135°28'0 0.0
2017-Feb-16 06:32N 34°39' E 135°28'0 0.0
2017-Feb-16 00:08N 34°39' E 135°28'0 0.0
2017-Feb-15 23:32N 34°39' E 135°28'2 2.3
2017-Feb-15 22:33N 34°39' E 135°25'2 1.5
2017-Feb-15 21:33N 34°38' E 135°24'1 0.7
2017-Feb-15 20:33N 34°39' E 135°24'3 2.9
2017-Feb-15 19:27N 34°39' E 135°28'0 0.0
2017-Feb-15 18:28N 34°39' E 135°28'0 0.0
2017-Feb-15 17:30N 34°39' E 135°28'0 0.0
2017-Feb-15 14:28N 34°39' E 135°28'0 0.0
2017-Feb-15 13:32N 34°39' E 135°28'0 0.0
2017-Feb-15 12:33N 34°39' E 135°28'0 0.0
2017-Feb-15 11:28N 34°39' E 135°28'0 0.0
2017-Feb-15 10:32N 34°39' E 135°28'0 0.0
2017-Feb-15 09:31N 34°39' E 135°28'4 4.6
2017-Feb-15 08:33N 34°38' E 135°23'3 3.3
2017-Feb-15 07:33N 34°39' E 135°27'1 0.1
2017-Feb-14 20:19N 34°39' E 135°28'0 0.0
2017-Feb-14 19:32N 34°39' E 135°28'0 0.0
2017-Feb-14 18:09N 34°39' E 135°28'0 0.0
2017-Feb-14 17:23N 34°39' E 135°28'1 1.7
2017-Feb-14 16:32N 34°38' E 135°27'1 0.5
2017-Feb-14 13:29N 34°39' E 135°28'0 0.0
2017-Feb-14 12:19N 34°39' E 135°28'0 0.0
2017-Feb-14 11:27N 34°39' E 135°28'3 3.8
2017-Feb-14 10:33N 34°39' E 135°24'3 2.4
2017-Feb-14 09:09N 34°39' E 135°28'0 0.0
2017-Feb-14 08:08N 34°39' E 135°28'0 0.0
2017-Feb-14 07:22N 34°39' E 135°28'0 0.0
2017-Feb-14 04:31N 34°39' E 135°28'0 0.0
2017-Feb-14 00:29N 34°39' E 135°28'1 1.5
2017-Feb-13 23:32N 34°40' E 135°27'2 2.2
2017-Feb-13 22:33N 34°39' E 135°24'0 0.1
2017-Feb-13 21:33N 34°39' E 135°24'3 0.4
2017-Feb-13 13:31N 34°39' E 135°28'1 1.1
2017-Feb-13 12:33N 34°39' E 135°27'1 0.9
2017-Feb-13 11:33N 34°39' E 135°26'2 0.6
2017-Feb-13 08:25N 34°39' E 135°28'0 0.0
2017-Feb-13 05:25N 34°39' E 135°28'0 0.0
2017-Feb-13 04:32N 34°39' E 135°28'0 0.0
2017-Feb-13 02:26N 34°39' E 135°28'0 0.0
2017-Feb-13 01:33N 34°39' E 135°28'0 0.0
2017-Feb-13 00:32N 34°39' E 135°28'0 0.0
2017-Feb-12 23:32N 34°39' E 135°28'3 3.3
2017-Feb-12 22:33N 34°39' E 135°24'0 0.5
2017-Feb-12 21:33N 34°38' E 135°24'3 3.2
2017-Feb-12 20:30N 34°39' E 135°28'0 0.0
2017-Feb-12 19:12N 34°39' E 135°28'0 0.0
2017-Feb-12 18:20N 34°39' E 135°28'  
Track history (hours):
 
Tides and Currents Weather Stations Pressure Air Temp Water Temp Dewpoint Dewpoint Depression Visibility Wind Speed Wind Dir Waves Ship Positions

No 31 Takemaru

Last reported at 2017-Feb-22 17:33 UTC. Time now 2017-Feb-22 17:41 UTC.
Position N 34°39' E 135°28'.

Length 31 m; draft 2.5 m.

Type: Tug. MMSI: 431000439.

Date/timePositionNaut miles runAvg speedWind from/ knotsBaromVisibWave heightAir tempDewpointWater temp
2017-Feb-22 17:33N 34°39' E 135°28'0 0.0
2017-Feb-22 16:33N 34°39' E 135°28'0 0.0
2017-Feb-22 15:33N 34°39' E 135°28'0 0.0
2017-Feb-22 14:33N 34°39' E 135°28'0 0.0
2017-Feb-22 13:33N 34°39' E 135°28'0 0.0
2017-Feb-22 12:30N 34°39' E 135°28'0 0.0
2017-Feb-22 11:33N 34°39' E 135°28'0 0.0
2017-Feb-22 10:33N 34°39' E 135°28'0 0.0
2017-Feb-22 09:30N 34°39' E 135°28'0 0.0
2017-Feb-22 08:28N 34°39' E 135°28'0 0.0
2017-Feb-22 07:25N 34°39' E 135°28'0 0.0
2017-Feb-22 06:25N 34°39' E 135°28'0 0.0
2017-Feb-22 05:33N 34°39' E 135°28'0 0.0
2017-Feb-22 04:32N 34°39' E 135°28'0 0.0
2017-Feb-21 23:27N 34°39' E 135°28'0 0.0
2017-Feb-21 22:26N 34°39' E 135°28'0 0.0
2017-Feb-21 21:27N 34°39' E 135°28'0 0.0
2017-Feb-21 20:31N 34°39' E 135°28'0 0.0
2017-Feb-21 19:30N 34°39' E 135°28'0 0.0
2017-Feb-21 18:33N 34°39' E 135°28'0 0.0
2017-Feb-21 17:32N 34°39' E 135°28'0 0.0
2017-Feb-21 16:23N 34°39' E 135°28'0 0.0
2017-Feb-21 15:33N 34°39' E 135°28'0 0.0
2017-Feb-21 14:33N 34°39' E 135°28'0 0.0
2017-Feb-21 13:24N 34°39' E 135°28'0 0.0
2017-Feb-21 12:33N 34°39' E 135°28'0 0.0
2017-Feb-21 11:33N 34°39' E 135°28'0 0.0
2017-Feb-21 10:32N 34°39' E 135°28'0 0.0
2017-Feb-21 09:33N 34°39' E 135°28'0 0.0
2017-Feb-21 08:33N 34°39' E 135°28'0 0.0
2017-Feb-21 07:31N 34°39' E 135°28'1 0.6
2017-Feb-21 06:32N 34°39' E 135°27'1 1.2
2017-Feb-21 05:33N 34°40' E 135°27'1 0.5
2017-Feb-21 02:31N 34°39' E 135°28'1 1.4
2017-Feb-21 01:32N 34°39' E 135°26'1 1.2
2017-Feb-21 00:22N 34°39' E 135°28'0 0.0
2017-Feb-20 23:21N 34°39' E 135°28'3 3.7
2017-Feb-20 22:33N 34°38' E 135°25'1 0.6
2017-Feb-20 21:33N 34°38' E 135°24'3 2.8
2017-Feb-20 20:33N 34°39' E 135°27'1 0.7
2017-Feb-20 19:33N 34°39' E 135°28'0 0.0
2017-Feb-20 18:33N 34°39' E 135°28'0 0.0
2017-Feb-20 17:33N 34°39' E 135°28'0 0.0
2017-Feb-20 16:32N 34°39' E 135°28'0 0.0
2017-Feb-20 15:32N 34°39' E 135°28'0 0.0
2017-Feb-20 12:27N 34°39' E 135°28'0 0.0
2017-Feb-20 10:33N 34°39' E 135°28'2 1.9
2017-Feb-20 09:33N 34°39' E 135°26'0 0.0
2017-Feb-20 08:33N 34°39' E 135°26'1 1.0
2017-Feb-20 07:33N 34°39' E 135°24'3 2.6
2017-Feb-20 06:27N 34°39' E 135°28'0 0.0
2017-Feb-20 05:33N 34°39' E 135°28'0 0.0
2017-Feb-20 04:28N 34°39' E 135°28'0 0.0
2017-Feb-20 03:33N 34°39' E 135°28'0 0.0
2017-Feb-20 02:32N 34°39' E 135°28'0 0.0
2017-Feb-20 01:31N 34°39' E 135°28'0 0.0
2017-Feb-20 00:10N 34°39' E 135°28'1 2.4
2017-Feb-19 23:33N 34°40' E 135°27'2 2.0
2017-Feb-19 22:33N 34°39' E 135°24'0 0.1
2017-Feb-19 21:33N 34°39' E 135°24'0 0.4
2017-Feb-19 20:33N 34°39' E 135°24'3 3.2
2017-Feb-19 19:33N 34°39' E 135°28'0 0.0
2017-Feb-19 13:13N 34°39' E 135°28'0 0.0
2017-Feb-19 09:24N 34°39' E 135°28'0 0.0
2017-Feb-19 08:31N 34°39' E 135°28'0 0.0
2017-Feb-19 07:30N 34°39' E 135°28'0 0.0
2017-Feb-19 06:31N 34°39' E 135°28'0 0.0
2017-Feb-19 05:33N 34°39' E 135°28'0 0.0
2017-Feb-19 04:31N 34°39' E 135°28'0 0.0
2017-Feb-19 03:31N 34°39' E 135°28'0 0.0
2017-Feb-19 02:27N 34°39' E 135°28'0 0.0
2017-Feb-19 01:32N 34°39' E 135°28'0 0.0
2017-Feb-19 00:29N 34°39' E 135°28'0 0.0
2017-Feb-18 23:25N 34°39' E 135°28'0 0.0
2017-Feb-18 16:16N 34°39' E 135°28'0 0.0
2017-Feb-18 15:31N 34°39' E 135°28'0 0.0
2017-Feb-18 14:28N 34°39' E 135°28'0 0.0
2017-Feb-18 12:24N 34°39' E 135°28'0 0.0
2017-Feb-18 09:31N 34°39' E 135°28'0 0.0
2017-Feb-18 07:24N 34°39' E 135°28'0 0.0
2017-Feb-18 00:28N 34°39' E 135°28'2 2.3
2017-Feb-17 23:33N 34°39' E 135°25'1 1.1
2017-Feb-17 22:33N 34°39' E 135°27'1 1.0
2017-Feb-17 21:33N 34°39' E 135°28'0 0.0
2017-Feb-17 20:24N 34°39' E 135°28'0 0.0
2017-Feb-17 19:19N 34°39' E 135°28'0 0.0
2017-Feb-17 18:17N 34°39' E 135°28'0 0.0
2017-Feb-17 17:22N 34°39' E 135°28'0 0.0
2017-Feb-17 14:33N 34°39' E 135°28'0 0.0
2017-Feb-17 10:19N 34°39' E 135°28'0 0.0
2017-Feb-17 09:29N 34°39' E 135°28'2 1.9
2017-Feb-17 08:33N 34°39' E 135°26'2 0.2
2017-Feb-16 21:04N 34°39' E 135°28'0 0.0
2017-Feb-16 09:07N 34°39' E 135°28'0 0.0
2017-Feb-16 06:32N 34°39' E 135°28'0 0.0
2017-Feb-16 00:08N 34°39' E 135°28'0 0.0
2017-Feb-15 23:32N 34°39' E 135°28'2 2.3
2017-Feb-15 22:33N 34°39' E 135°25'2 1.5
2017-Feb-15 21:33N 34°38' E 135°24'1 0.7
2017-Feb-15 20:33N 34°39' E 135°24'3 2.9
2017-Feb-15 19:27N 34°39' E 135°28'0 0.0
2017-Feb-15 18:28N 34°39' E 135°28'0 0.0
2017-Feb-15 17:30N 34°39' E 135°28'0 0.0
2017-Feb-15 14:28N 34°39' E 135°28'0 0.0
2017-Feb-15 13:32N 34°39' E 135°28'0 0.0
2017-Feb-15 12:33N 34°39' E 135°28'0 0.0
2017-Feb-15 11:28N 34°39' E 135°28'0 0.0
2017-Feb-15 10:32N 34°39' E 135°28'0 0.0
2017-Feb-15 09:31N 34°39' E 135°28'4 4.6
2017-Feb-15 08:33N 34°38' E 135°23'3 3.3
2017-Feb-15 07:33N 34°39' E 135°27'1 0.1
2017-Feb-14 20:19N 34°39' E 135°28'0 0.0
2017-Feb-14 19:32N 34°39' E 135°28'0 0.0
2017-Feb-14 18:09N 34°39' E 135°28'0 0.0
2017-Feb-14 17:23N 34°39' E 135°28'1 1.7
2017-Feb-14 16:32N 34°38' E 135°27'1 0.5
2017-Feb-14 13:29N 34°39' E 135°28'0 0.0
2017-Feb-14 12:19N 34°39' E 135°28'0 0.0
2017-Feb-14 11:27N 34°39' E 135°28'3 3.8
2017-Feb-14 10:33N 34°39' E 135°24'3 2.4
2017-Feb-14 09:09N 34°39' E 135°28'0 0.0
2017-Feb-14 08:08N 34°39' E 135°28'0 0.0
2017-Feb-14 07:22N 34°39' E 135°28'0 0.0
2017-Feb-14 04:31N 34°39' E 135°28'0 0.0
2017-Feb-14 00:29N 34°39' E 135°28'1 1.5
2017-Feb-13 23:32N 34°40' E 135°27'2 2.2
2017-Feb-13 22:33N 34°39' E 135°24'0 0.1
2017-Feb-13 21:33N 34°39' E 135°24'3 0.4
2017-Feb-13 13:31N 34°39' E 135°28'1 1.1
2017-Feb-13 12:33N 34°39' E 135°27'1 0.9
2017-Feb-13 11:33N 34°39' E 135°26'2 0.6
2017-Feb-13 08:25N 34°39' E 135°28'0 0.0
2017-Feb-13 05:25N 34°39' E 135°28'0 0.0
2017-Feb-13 04:32N 34°39' E 135°28'0 0.0
2017-Feb-13 02:26N 34°39' E 135°28'0 0.0
2017-Feb-13 01:33N 34°39' E 135°28'0 0.0
2017-Feb-13 00:32N 34°39' E 135°28'0 0.0
2017-Feb-12 23:32N 34°39' E 135°28'3 3.3
2017-Feb-12 22:33N 34°39' E 135°24'0 0.5
2017-Feb-12 21:33N 34°38' E 135°24'3 3.2
2017-Feb-12 20:30N 34°39' E 135°28'0 0.0
2017-Feb-12 19:12N 34°39' E 135°28'0 0.0
2017-Feb-12 18:20N 34°39' E 135°28'  

Dump ship's entire track history